sensor_id;sensor_type;location;lat;lon;timestamp;P1;durP1;ratioP1;P2;durP2;ratioP2
47894;SDS011;33653;52.302;8.134;2023-01-28T00:01:48;2.20;;;2.00;;
47894;SDS011;33653;52.302;8.134;2023-01-28T00:04:16;2.38;;;2.20;;
47894;SDS011;33653;52.302;8.134;2023-01-28T00:06:44;4.40;;;2.40;;
47894;SDS011;33653;52.302;8.134;2023-01-28T00:09:12;2.97;;;2.78;;
47894;SDS011;33653;52.302;8.134;2023-01-28T00:11:40;2.50;;;2.25;;
47894;SDS011;33653;52.302;8.134;2023-01-28T00:14:09;2.13;;;2.00;;
47894;SDS011;33653;52.302;8.134;2023-01-28T00:16:38;2.10;;;2.00;;
47894;SDS011;33653;52.302;8.134;2023-01-28T00:19:06;2.33;;;2.13;;
47894;SDS011;33653;52.302;8.134;2023-01-28T00:21:34;2.50;;;2.30;;
47894;SDS011;33653;52.302;8.134;2023-01-28T00:24:02;1.80;;;1.70;;
47894;SDS011;33653;52.302;8.134;2023-01-28T00:26:30;2.38;;;2.17;;
47894;SDS011;33653;52.302;8.134;2023-01-28T00:28:58;2.17;;;2.00;;
47894;SDS011;33653;52.302;8.134;2023-01-28T00:31:26;2.50;;;2.30;;
47894;SDS011;33653;52.302;8.134;2023-01-28T00:33:55;3.17;;;2.87;;
47894;SDS011;33653;52.302;8.134;2023-01-28T00:36:23;2.38;;;2.22;;
47894;SDS011;33653;52.302;8.134;2023-01-28T00:38:53;6.65;;;2.20;;
47894;SDS011;33653;52.302;8.134;2023-01-28T00:41:24;2.13;;;1.90;;
47894;SDS011;33653;52.302;8.134;2023-01-28T00:43:57;2.17;;;2.00;;
47894;SDS011;33653;52.302;8.134;2023-01-28T00:46:25;2.30;;;2.10;;
47894;SDS011;33653;52.302;8.134;2023-01-28T00:48:54;2.10;;;2.00;;
47894;SDS011;33653;52.302;8.134;2023-01-28T00:51:21;2.58;;;2.25;;
47894;SDS011;33653;52.302;8.134;2023-01-28T00:53:49;3.13;;;2.40;;
47894;SDS011;33653;52.302;8.134;2023-01-28T00:56:18;2.20;;;2.00;;
47894;SDS011;33653;52.302;8.134;2023-01-28T00:58:46;2.90;;;2.60;;
47894;SDS011;33653;52.302;8.134;2023-01-28T01:01:16;2.00;;;1.90;;
47894;SDS011;33653;52.302;8.134;2023-01-28T01:03:50;2.55;;;2.33;;
47894;SDS011;33653;52.302;8.134;2023-01-28T01:06:36;2.43;;;2.17;;
47894;SDS011;33653;52.302;8.134;2023-01-28T01:09:07;2.40;;;2.20;;
47894;SDS011;33653;52.302;8.134;2023-01-28T01:11:39;2.17;;;1.98;;
47894;SDS011;33653;52.302;8.134;2023-01-28T01:14:08;4.57;;;3.03;;
47894;SDS011;33653;52.302;8.134;2023-01-28T01:16:39;2.63;;;2.42;;
47894;SDS011;33653;52.302;8.134;2023-01-28T01:19:07;2.70;;;2.50;;
47894;SDS011;33653;52.302;8.134;2023-01-28T01:21:35;4.28;;;3.00;;
47894;SDS011;33653;52.302;8.134;2023-01-28T01:24:03;2.40;;;2.20;;
47894;SDS011;33653;52.302;8.134;2023-01-28T01:26:31;3.60;;;3.30;;
47894;SDS011;33653;52.302;8.134;2023-01-28T01:28:59;4.60;;;2.80;;
47894;SDS011;33653;52.302;8.134;2023-01-28T01:31:27;2.80;;;2.60;;
47894;SDS011;33653;52.302;8.134;2023-01-28T01:33:55;1.95;;;1.85;;
47894;SDS011;33653;52.302;8.134;2023-01-28T01:36:25;2.65;;;2.30;;
47894;SDS011;33653;52.302;8.134;2023-01-28T01:38:53;7.90;;;2.10;;
47894;SDS011;33653;52.302;8.134;2023-01-28T01:41:31;2.90;;;2.67;;
47894;SDS011;33653;52.302;8.134;2023-01-28T01:44:00;2.67;;;2.47;;
47894;SDS011;33653;52.302;8.134;2023-01-28T01:46:32;2.40;;;2.20;;
47894;SDS011;33653;52.302;8.134;2023-01-28T01:49:16;2.67;;;2.47;;
47894;SDS011;33653;52.302;8.134;2023-01-28T01:51:54;2.63;;;2.42;;
47894;SDS011;33653;52.302;8.134;2023-01-28T01:54:29;3.00;;;2.50;;
47894;SDS011;33653;52.302;8.134;2023-01-28T01:56:59;2.03;;;1.92;;
47894;SDS011;33653;52.302;8.134;2023-01-28T01:59:30;5.03;;;3.00;;
47894;SDS011;33653;52.302;8.134;2023-01-28T02:02:00;2.08;;;1.98;;
47894;SDS011;33653;52.302;8.134;2023-01-28T02:04:32;2.83;;;2.63;;
47894;SDS011;33653;52.302;8.134;2023-01-28T02:07:14;2.53;;;2.33;;
47894;SDS011;33653;52.302;8.134;2023-01-28T02:09:44;2.57;;;2.37;;
47894;SDS011;33653;52.302;8.134;2023-01-28T02:12:22;2.50;;;2.30;;
47894;SDS011;33653;52.302;8.134;2023-01-28T02:14:57;3.97;;;3.27;;
47894;SDS011;33653;52.302;8.134;2023-01-28T02:17:31;2.20;;;2.10;;
47894;SDS011;33653;52.302;8.134;2023-01-28T02:20:03;2.47;;;2.23;;
47894;SDS011;33653;52.302;8.134;2023-01-28T02:26:04;5.60;;;3.53;;
47894;SDS011;33653;52.302;8.134;2023-01-28T02:32:04;2.40;;;2.20;;
47894;SDS011;33653;52.302;8.134;2023-01-28T02:34:55;2.50;;;2.33;;
47894;SDS011;33653;52.302;8.134;2023-01-28T02:40:24;2.93;;;2.57;;
47894;SDS011;33653;52.302;8.134;2023-01-28T02:42:56;2.40;;;2.20;;
47894;SDS011;33653;52.302;8.134;2023-01-28T02:45:26;2.60;;;2.40;;
47894;SDS011;33653;52.302;8.134;2023-01-28T02:48:18;6.33;;;2.70;;
47894;SDS011;33653;52.302;8.134;2023-01-28T02:51:00;4.68;;;2.40;;
47894;SDS011;33653;52.302;8.134;2023-01-28T02:53:39;2.73;;;2.53;;
47894;SDS011;33653;52.302;8.134;2023-01-28T02:56:17;3.13;;;2.83;;
47894;SDS011;33653;52.302;8.134;2023-01-28T03:05:05;3.77;;;2.90;;
47894;SDS011;33653;52.302;8.134;2023-01-28T03:07:57;2.70;;;2.50;;
47894;SDS011;33653;52.302;8.134;2023-01-28T03:10:26;2.90;;;2.70;;
47894;SDS011;33653;52.302;8.134;2023-01-28T03:12:55;2.67;;;2.47;;
47894;SDS011;33653;52.302;8.134;2023-01-28T03:15:46;3.53;;;3.20;;
47894;SDS011;33653;52.302;8.134;2023-01-28T03:18:44;2.63;;;2.43;;
47894;SDS011;33653;52.302;8.134;2023-01-28T03:21:39;3.08;;;2.80;;
47894;SDS011;33653;52.302;8.134;2023-01-28T03:24:34;2.93;;;2.67;;
47894;SDS011;33653;52.302;8.134;2023-01-28T03:30:26;6.53;;;2.50;;
47894;SDS011;33653;52.302;8.134;2023-01-28T03:33:35;2.90;;;2.70;;
47894;SDS011;33653;52.302;8.134;2023-01-28T03:36:23;3.13;;;2.80;;
47894;SDS011;33653;52.302;8.134;2023-01-28T03:39:27;3.90;;;3.50;;
47894;SDS011;33653;52.302;8.134;2023-01-28T03:42:08;4.33;;;3.47;;
47894;SDS011;33653;52.302;8.134;2023-01-28T03:44:54;7.77;;;3.50;;
47894;SDS011;33653;52.302;8.134;2023-01-28T03:47:27;3.33;;;3.03;;
47894;SDS011;33653;52.302;8.134;2023-01-28T03:49:57;2.45;;;2.33;;
47894;SDS011;33653;52.302;8.134;2023-01-28T03:52:29;3.80;;;3.10;;
47894;SDS011;33653;52.302;8.134;2023-01-28T03:55:36;11.87;;;3.70;;
47894;SDS011;33653;52.302;8.134;2023-01-28T03:58:04;4.73;;;3.63;;
47894;SDS011;33653;52.302;8.134;2023-01-28T04:00:34;3.57;;;3.03;;
47894;SDS011;33653;52.302;8.134;2023-01-28T04:03:13;3.20;;;2.90;;
47894;SDS011;33653;52.302;8.134;2023-01-28T04:08:31;2.37;;;2.17;;
47894;SDS011;33653;52.302;8.134;2023-01-28T04:11:19;3.90;;;3.27;;
47894;SDS011;33653;52.302;8.134;2023-01-28T04:13:47;3.03;;;2.73;;
47894;SDS011;33653;52.302;8.134;2023-01-28T04:16:17;3.83;;;3.43;;
47894;SDS011;33653;52.302;8.134;2023-01-28T04:18:46;3.53;;;2.97;;
47894;SDS011;33653;52.302;8.134;2023-01-28T04:21:15;2.77;;;2.57;;
47894;SDS011;33653;52.302;8.134;2023-01-28T04:23:43;3.13;;;2.83;;
47894;SDS011;33653;52.302;8.134;2023-01-28T04:26:13;2.50;;;2.30;;
47894;SDS011;33653;52.302;8.134;2023-01-28T04:28:41;3.50;;;2.80;;
47894;SDS011;33653;52.302;8.134;2023-01-28T04:31:09;4.20;;;3.33;;
47894;SDS011;33653;52.302;8.134;2023-01-28T04:33:58;4.97;;;3.20;;
47894;SDS011;33653;52.302;8.134;2023-01-28T04:36:37;9.93;;;3.80;;
47894;SDS011;33653;52.302;8.134;2023-01-28T04:39:21;6.00;;;3.23;;
47894;SDS011;33653;52.302;8.134;2023-01-28T04:42:07;3.30;;;3.00;;
47894;SDS011;33653;52.302;8.134;2023-01-28T04:44:54;4.20;;;3.50;;
47894;SDS011;33653;52.302;8.134;2023-01-28T04:47:51;2.70;;;2.50;;
47894;SDS011;33653;52.302;8.134;2023-01-28T04:50:43;3.60;;;3.30;;
47894;SDS011;33653;52.302;8.134;2023-01-28T04:53:22;3.33;;;2.93;;
47894;SDS011;33653;52.302;8.134;2023-01-28T04:55:55;3.47;;;3.00;;
47894;SDS011;33653;52.302;8.134;2023-01-28T04:58:24;3.23;;;3.00;;
47894;SDS011;33653;52.302;8.134;2023-01-28T05:00:59;2.80;;;2.60;;
47894;SDS011;33653;52.302;8.134;2023-01-28T05:03:27;3.63;;;3.33;;
47894;SDS011;33653;52.302;8.134;2023-01-28T05:05:55;6.03;;;3.70;;
47894;SDS011;33653;52.302;8.134;2023-01-28T05:08:34;3.43;;;3.13;;
47894;SDS011;33653;52.302;8.134;2023-01-28T05:11:02;4.10;;;3.77;;
47894;SDS011;33653;52.302;8.134;2023-01-28T05:13:30;5.40;;;3.10;;
47894;SDS011;33653;52.302;8.134;2023-01-28T05:15:58;6.10;;;3.17;;
47894;SDS011;33653;52.302;8.134;2023-01-28T05:18:26;3.33;;;3.07;;
47894;SDS011;33653;52.302;8.134;2023-01-28T05:21:04;4.57;;;3.13;;
47894;SDS011;33653;52.302;8.134;2023-01-28T05:23:35;2.88;;;2.67;;
47894;SDS011;33653;52.302;8.134;2023-01-28T05:26:03;2.90;;;2.60;;
47894;SDS011;33653;52.302;8.134;2023-01-28T05:28:31;3.67;;;3.23;;
47894;SDS011;33653;52.302;8.134;2023-01-28T05:31:03;3.70;;;3.30;;
47894;SDS011;33653;52.302;8.134;2023-01-28T05:33:33;3.37;;;3.00;;
47894;SDS011;33653;52.302;8.134;2023-01-28T05:36:03;3.67;;;2.90;;
47894;SDS011;33653;52.302;8.134;2023-01-28T05:38:31;2.80;;;2.60;;
47894;SDS011;33653;52.302;8.134;2023-01-28T05:40:59;2.90;;;2.70;;
47894;SDS011;33653;52.302;8.134;2023-01-28T05:43:27;3.63;;;2.57;;
47894;SDS011;33653;52.302;8.134;2023-01-28T05:46:22;3.90;;;3.17;;
47894;SDS011;33653;52.302;8.134;2023-01-28T05:49:02;7.63;;;2.50;;
47894;SDS011;33653;52.302;8.134;2023-01-28T05:51:36;3.50;;;3.20;;
47894;SDS011;33653;52.302;8.134;2023-01-28T05:54:06;2.63;;;2.47;;
47894;SDS011;33653;52.302;8.134;2023-01-28T05:56:34;3.60;;;3.30;;
47894;SDS011;33653;52.302;8.134;2023-01-28T05:59:03;3.50;;;3.20;;
47894;SDS011;33653;52.302;8.134;2023-01-28T06:01:32;3.23;;;2.97;;
47894;SDS011;33653;52.302;8.134;2023-01-28T06:04:00;2.73;;;2.53;;
47894;SDS011;33653;52.302;8.134;2023-01-28T06:06:31;3.30;;;2.93;;
47894;SDS011;33653;52.302;8.134;2023-01-28T06:09:01;2.27;;;2.07;;
47894;SDS011;33653;52.302;8.134;2023-01-28T06:11:31;3.20;;;2.87;;
47894;SDS011;33653;52.302;8.134;2023-01-28T06:14:03;3.43;;;3.13;;
47894;SDS011;33653;52.302;8.134;2023-01-28T06:16:46;5.07;;;2.97;;
47894;SDS011;33653;52.302;8.134;2023-01-28T06:19:20;2.90;;;2.70;;
47894;SDS011;33653;52.302;8.134;2023-01-28T06:22:01;3.27;;;3.07;;
47894;SDS011;33653;52.302;8.134;2023-01-28T06:24:32;3.40;;;3.10;;
47894;SDS011;33653;52.302;8.134;2023-01-28T06:27:00;2.83;;;2.63;;
47894;SDS011;33653;52.302;8.134;2023-01-28T06:29:28;5.23;;;3.27;;
47894;SDS011;33653;52.302;8.134;2023-01-28T06:31:56;3.20;;;3.00;;
47894;SDS011;33653;52.302;8.134;2023-01-28T06:34:24;3.17;;;2.87;;
47894;SDS011;33653;52.302;8.134;2023-01-28T06:36:52;3.33;;;3.03;;
47894;SDS011;33653;52.302;8.134;2023-01-28T06:39:20;3.30;;;3.00;;
47894;SDS011;33653;52.302;8.134;2023-01-28T06:41:48;3.30;;;3.00;;
47894;SDS011;33653;52.302;8.134;2023-01-28T06:44:16;3.17;;;2.87;;
47894;SDS011;33653;52.302;8.134;2023-01-28T06:46:44;3.47;;;3.17;;
47894;SDS011;33653;52.302;8.134;2023-01-28T06:49:12;3.43;;;3.20;;
47894;SDS011;33653;52.302;8.134;2023-01-28T06:51:40;2.93;;;2.73;;
47894;SDS011;33653;52.302;8.134;2023-01-28T06:54:08;3.27;;;2.80;;
47894;SDS011;33653;52.302;8.134;2023-01-28T06:56:36;3.73;;;3.43;;
47894;SDS011;33653;52.302;8.134;2023-01-28T06:59:04;3.03;;;2.77;;
47894;SDS011;33653;52.302;8.134;2023-01-28T07:01:32;3.33;;;3.03;;
47894;SDS011;33653;52.302;8.134;2023-01-28T07:04:00;2.80;;;2.57;;
47894;SDS011;33653;52.302;8.134;2023-01-28T07:06:28;3.87;;;2.90;;
47894;SDS011;33653;52.302;8.134;2023-01-28T07:08:55;3.40;;;3.10;;
47894;SDS011;33653;52.302;8.134;2023-01-28T07:11:23;3.10;;;2.87;;
47894;SDS011;33653;52.302;8.134;2023-01-28T07:13:51;2.30;;;2.20;;
47894;SDS011;33653;52.302;8.134;2023-01-28T07:16:19;4.47;;;2.80;;
47894;SDS011;33653;52.302;8.134;2023-01-28T07:18:47;3.30;;;3.00;;
47894;SDS011;33653;52.302;8.134;2023-01-28T07:21:16;3.50;;;3.20;;
47894;SDS011;33653;52.302;8.134;2023-01-28T07:23:44;3.87;;;2.83;;
47894;SDS011;33653;52.302;8.134;2023-01-28T07:26:12;4.27;;;3.57;;
47894;SDS011;33653;52.302;8.134;2023-01-28T07:28:45;3.57;;;2.97;;
47894;SDS011;33653;52.302;8.134;2023-01-28T07:31:13;3.57;;;3.27;;
47894;SDS011;33653;52.302;8.134;2023-01-28T07:33:41;2.70;;;2.50;;
47894;SDS011;33653;52.302;8.134;2023-01-28T07:36:09;2.90;;;2.53;;
47894;SDS011;33653;52.302;8.134;2023-01-28T07:38:37;3.10;;;2.67;;
47894;SDS011;33653;52.302;8.134;2023-01-28T07:41:05;6.87;;;3.33;;
47894;SDS011;33653;52.302;8.134;2023-01-28T07:43:34;7.47;;;3.83;;
47894;SDS011;33653;52.302;8.134;2023-01-28T07:46:02;3.03;;;2.80;;
47894;SDS011;33653;52.302;8.134;2023-01-28T07:48:30;4.20;;;2.80;;
47894;SDS011;33653;52.302;8.134;2023-01-28T07:50:58;4.73;;;4.10;;
47894;SDS011;33653;52.302;8.134;2023-01-28T07:53:26;4.00;;;3.63;;
47894;SDS011;33653;52.302;8.134;2023-01-28T07:55:58;3.50;;;3.17;;
47894;SDS011;33653;52.302;8.134;2023-01-28T07:58:27;2.70;;;2.50;;
47894;SDS011;33653;52.302;8.134;2023-01-28T08:00:58;2.80;;;2.60;;
47894;SDS011;33653;52.302;8.134;2023-01-28T08:03:26;2.88;;;2.60;;
47894;SDS011;33653;52.302;8.134;2023-01-28T08:05:55;3.83;;;3.10;;
47894;SDS011;33653;52.302;8.134;2023-01-28T08:08:24;3.10;;;2.80;;
47894;SDS011;33653;52.302;8.134;2023-01-28T08:10:53;3.60;;;3.20;;
47894;SDS011;33653;52.302;8.134;2023-01-28T08:13:21;4.60;;;3.43;;
47894;SDS011;33653;52.302;8.134;2023-01-28T08:15:49;5.93;;;4.30;;
47894;SDS011;33653;52.302;8.134;2023-01-28T08:18:22;5.13;;;3.60;;
47894;SDS011;33653;52.302;8.134;2023-01-28T08:20:53;3.70;;;3.03;;
47894;SDS011;33653;52.302;8.134;2023-01-28T08:23:23;5.60;;;3.60;;
47894;SDS011;33653;52.302;8.134;2023-01-28T08:25:52;5.40;;;3.43;;
47894;SDS011;33653;52.302;8.134;2023-01-28T08:28:21;4.67;;;4.00;;
47894;SDS011;33653;52.302;8.134;2023-01-28T08:30:49;3.57;;;3.07;;
47894;SDS011;33653;52.302;8.134;2023-01-28T08:33:17;4.23;;;3.83;;
47894;SDS011;33653;52.302;8.134;2023-01-28T08:35:46;6.23;;;4.27;;
47894;SDS011;33653;52.302;8.134;2023-01-28T08:38:14;5.63;;;4.80;;
47894;SDS011;33653;52.302;8.134;2023-01-28T08:40:46;5.50;;;3.57;;
47894;SDS011;33653;52.302;8.134;2023-01-28T08:43:16;4.87;;;3.63;;
47894;SDS011;33653;52.302;8.134;2023-01-28T08:45:44;4.70;;;3.80;;
47894;SDS011;33653;52.302;8.134;2023-01-28T08:48:13;5.20;;;4.33;;
47894;SDS011;33653;52.302;8.134;2023-01-28T08:50:43;5.22;;;4.28;;
47894;SDS011;33653;52.302;8.134;2023-01-28T08:53:16;5.53;;;4.40;;
47894;SDS011;33653;52.302;8.134;2023-01-28T08:55:46;6.27;;;5.10;;
47894;SDS011;33653;52.302;8.134;2023-01-28T08:58:16;15.07;;;5.43;;
47894;SDS011;33653;52.302;8.134;2023-01-28T09:00:44;11.10;;;6.43;;
47894;SDS011;33653;52.302;8.134;2023-01-28T09:03:13;9.37;;;5.43;;
47894;SDS011;33653;52.302;8.134;2023-01-28T09:05:41;11.40;;;6.43;;
47894;SDS011;33653;52.302;8.134;2023-01-28T09:08:10;8.97;;;6.53;;
47894;SDS011;33653;52.302;8.134;2023-01-28T09:10:41;7.85;;;5.65;;
47894;SDS011;33653;52.302;8.134;2023-01-28T09:13:10;9.67;;;5.90;;
47894;SDS011;33653;52.302;8.134;2023-01-28T09:15:41;14.83;;;7.37;;
47894;SDS011;33653;52.302;8.134;2023-01-28T09:18:09;10.20;;;7.70;;
47894;SDS011;33653;52.302;8.134;2023-01-28T09:20:37;8.97;;;6.33;;
47894;SDS011;33653;52.302;8.134;2023-01-28T09:23:05;11.93;;;6.90;;
47894;SDS011;33653;52.302;8.134;2023-01-28T09:25:33;8.17;;;6.23;;
47894;SDS011;33653;52.302;8.134;2023-01-28T09:28:04;15.60;;;7.72;;
47894;SDS011;33653;52.302;8.134;2023-01-28T09:30:32;10.13;;;6.70;;
47894;SDS011;33653;52.302;8.134;2023-01-28T09:33:03;15.18;;;7.88;;
47894;SDS011;33653;52.302;8.134;2023-01-28T09:35:32;10.57;;;7.60;;
47894;SDS011;33653;52.302;8.134;2023-01-28T09:38:00;11.13;;;7.67;;
47894;SDS011;33653;52.302;8.134;2023-01-28T09:40:33;13.47;;;7.43;;
47894;SDS011;33653;52.302;8.134;2023-01-28T09:46:32;12.23;;;7.63;;
47894;SDS011;33653;52.302;8.134;2023-01-28T09:49:47;10.03;;;7.17;;
47894;SDS011;33653;52.302;8.134;2023-01-28T09:51:54;10.45;;;7.85;;
47894;SDS011;33653;52.302;8.134;2023-01-28T09:54:32;16.63;;;8.33;;
47894;SDS011;33653;52.302;8.134;2023-01-28T09:57:19;11.47;;;8.70;;
47894;SDS011;33653;52.302;8.134;2023-01-28T09:59:53;11.60;;;8.40;;
47894;SDS011;33653;52.302;8.134;2023-01-28T10:07:45;13.27;;;8.47;;
47894;SDS011;33653;52.302;8.134;2023-01-28T10:10:20;13.53;;;7.37;;
47894;SDS011;33653;52.302;8.134;2023-01-28T10:13:01;14.70;;;7.18;;
47894;SDS011;33653;52.302;8.134;2023-01-28T10:18:27;11.47;;;7.30;;
47894;SDS011;33653;52.302;8.134;2023-01-28T10:21:05;30.67;;;19.87;;
47894;SDS011;33653;52.302;8.134;2023-01-28T10:24:02;10.23;;;6.38;;
47894;SDS011;33653;52.302;8.134;2023-01-28T10:26:44;12.02;;;7.63;;
47894;SDS011;33653;52.302;8.134;2023-01-28T10:31:49;11.73;;;7.97;;
47894;SDS011;33653;52.302;8.134;2023-01-28T10:34:25;13.18;;;7.50;;
47894;SDS011;33653;52.302;8.134;2023-01-28T10:36:53;13.40;;;8.32;;
47894;SDS011;33653;52.302;8.134;2023-01-28T10:39:23;13.77;;;8.55;;
47894;SDS011;33653;52.302;8.134;2023-01-28T10:41:52;17.80;;;9.10;;
47894;SDS011;33653;52.302;8.134;2023-01-28T10:47:02;11.05;;;7.45;;
47894;SDS011;33653;52.302;8.134;2023-01-28T10:49:38;14.75;;;7.95;;
47894;SDS011;33653;52.302;8.134;2023-01-28T10:52:12;15.43;;;8.25;;
47894;SDS011;33653;52.302;8.134;2023-01-28T10:54:43;12.02;;;7.93;;
47894;SDS011;33653;52.302;8.134;2023-01-28T10:57:15;14.75;;;8.98;;
47894;SDS011;33653;52.302;8.134;2023-01-28T10:59:44;13.40;;;8.63;;
47894;SDS011;33653;52.302;8.134;2023-01-28T11:02:24;14.43;;;8.77;;
47894;SDS011;33653;52.302;8.134;2023-01-28T11:05:48;15.13;;;8.23;;
47894;SDS011;33653;52.302;8.134;2023-01-28T11:08:12;9.52;;;6.82;;
47894;SDS011;33653;52.302;8.134;2023-01-28T11:10:43;14.80;;;9.27;;
47894;SDS011;33653;52.302;8.134;2023-01-28T11:13:24;12.70;;;7.93;;
47894;SDS011;33653;52.302;8.134;2023-01-28T11:16:00;12.32;;;8.30;;
47894;SDS011;33653;52.302;8.134;2023-01-28T11:18:31;13.68;;;8.43;;
47894;SDS011;33653;52.302;8.134;2023-01-28T11:21:13;12.05;;;7.60;;
47894;SDS011;33653;52.302;8.134;2023-01-28T11:24:12;12.57;;;7.57;;
47894;SDS011;33653;52.302;8.134;2023-01-28T11:26:48;13.60;;;7.70;;
47894;SDS011;33653;52.302;8.134;2023-01-28T11:29:31;13.27;;;8.32;;
47894;SDS011;33653;52.302;8.134;2023-01-28T11:34:29;14.60;;;9.25;;
47894;SDS011;33653;52.302;8.134;2023-01-28T11:37:01;16.35;;;9.05;;
47894;SDS011;33653;52.302;8.134;2023-01-28T11:39:31;13.70;;;7.53;;
47894;SDS011;33653;52.302;8.134;2023-01-28T11:42:09;31.27;;;16.85;;
47894;SDS011;33653;52.302;8.134;2023-01-28T11:44:39;14.15;;;9.43;;
47894;SDS011;33653;52.302;8.134;2023-01-28T12:04:15;10.10;;;6.53;;
47894;SDS011;33653;52.302;8.134;2023-01-28T12:16:26;10.98;;;7.85;;
47894;SDS011;33653;52.302;8.134;2023-01-28T12:19:08;33.40;;;18.02;;
47894;SDS011;33653;52.302;8.134;2023-01-28T12:24:48;13.93;;;7.45;;
47894;SDS011;33653;52.302;8.134;2023-01-28T12:39:10;9.07;;;6.57;;
47894;SDS011;33653;52.302;8.134;2023-01-28T12:42:29;10.63;;;7.20;;
47894;SDS011;33653;52.302;8.134;2023-01-28T12:45:03;14.15;;;7.60;;
47894;SDS011;33653;52.302;8.134;2023-01-28T12:47:44;16.65;;;7.93;;
47894;SDS011;33653;52.302;8.134;2023-01-28T12:50:20;14.55;;;7.43;;
47894;SDS011;33653;52.302;8.134;2023-01-28T12:53:03;13.07;;;7.68;;
47894;SDS011;33653;52.302;8.134;2023-01-28T12:58:56;9.88;;;6.32;;
47894;SDS011;33653;52.302;8.134;2023-01-28T13:01:40;10.48;;;6.15;;
47894;SDS011;33653;52.302;8.134;2023-01-28T13:04:36;10.98;;;6.20;;
47894;SDS011;33653;52.302;8.134;2023-01-28T13:07:33;11.32;;;6.55;;
47894;SDS011;33653;52.302;8.134;2023-01-28T13:10:10;8.05;;;5.72;;
47894;SDS011;33653;52.302;8.134;2023-01-28T13:12:51;8.25;;;5.60;;
47894;SDS011;33653;52.302;8.134;2023-01-28T13:15:20;13.93;;;6.78;;
47894;SDS011;33653;52.302;8.134;2023-01-28T13:17:56;13.07;;;6.43;;
47894;SDS011;33653;52.302;8.134;2023-01-28T13:20:49;8.68;;;6.07;;
47894;SDS011;33653;52.302;8.134;2023-01-28T13:23:22;11.15;;;5.70;;
47894;SDS011;33653;52.302;8.134;2023-01-28T13:25:53;8.30;;;5.88;;
47894;SDS011;33653;52.302;8.134;2023-01-28T13:28:29;14.32;;;6.80;;
47894;SDS011;33653;52.302;8.134;2023-01-28T13:31:03;9.68;;;6.25;;
47894;SDS011;33653;52.302;8.134;2023-01-28T13:33:37;8.68;;;4.97;;
47894;SDS011;33653;52.302;8.134;2023-01-28T13:36:21;8.25;;;5.40;;
47894;SDS011;33653;52.302;8.134;2023-01-28T13:39:00;8.65;;;5.82;;
47894;SDS011;33653;52.302;8.134;2023-01-28T13:46:52;12.80;;;7.80;;
47894;SDS011;33653;52.302;8.134;2023-01-28T13:49:29;10.05;;;5.28;;
47894;SDS011;33653;52.302;8.134;2023-01-28T13:52:11;13.30;;;8.43;;
47894;SDS011;33653;52.302;8.134;2023-01-28T13:55:00;13.63;;;7.33;;
47894;SDS011;33653;52.302;8.134;2023-01-28T14:09:09;10.48;;;6.32;;
47894;SDS011;33653;52.302;8.134;2023-01-28T14:17:49;19.20;;;8.57;;
47894;SDS011;33653;52.302;8.134;2023-01-28T14:20:37;13.52;;;6.30;;
47894;SDS011;33653;52.302;8.134;2023-01-28T14:23:16;10.20;;;5.88;;
47894;SDS011;33653;52.302;8.134;2023-01-28T14:26:00;9.05;;;5.38;;
47894;SDS011;33653;52.302;8.134;2023-01-28T14:31:47;9.93;;;5.65;;
47894;SDS011;33653;52.302;8.134;2023-01-28T14:34:21;10.95;;;6.25;;
47894;SDS011;33653;52.302;8.134;2023-01-28T14:37:03;10.82;;;6.70;;
47894;SDS011;33653;52.302;8.134;2023-01-28T14:42:30;12.38;;;6.18;;
47894;SDS011;33653;52.302;8.134;2023-01-28T14:54:58;11.38;;;6.20;;
47894;SDS011;33653;52.302;8.134;2023-01-28T15:00:02;9.50;;;5.88;;
47894;SDS011;33653;52.302;8.134;2023-01-28T15:02:42;11.98;;;4.88;;
47894;SDS011;33653;52.302;8.134;2023-01-28T15:05:16;10.23;;;6.50;;
47894;SDS011;33653;52.302;8.134;2023-01-28T15:07:49;7.90;;;4.80;;
47894;SDS011;33653;52.302;8.134;2023-01-28T15:10:39;9.55;;;5.53;;
47894;SDS011;33653;52.302;8.134;2023-01-28T15:13:10;7.07;;;4.47;;
47894;SDS011;33653;52.302;8.134;2023-01-28T15:15:52;15.05;;;5.97;;
47894;SDS011;33653;52.302;8.134;2023-01-28T15:20:57;8.32;;;5.32;;
47894;SDS011;33653;52.302;8.134;2023-01-28T15:23:27;8.30;;;5.53;;
47894;SDS011;33653;52.302;8.134;2023-01-28T15:26:03;10.15;;;5.90;;
47894;SDS011;33653;52.302;8.134;2023-01-28T15:28:52;8.85;;;5.55;;
47894;SDS011;33653;52.302;8.134;2023-01-28T15:31:22;7.25;;;5.07;;
47894;SDS011;33653;52.302;8.134;2023-01-28T15:34:02;8.43;;;5.03;;
47894;SDS011;33653;52.302;8.134;2023-01-28T15:36:41;6.75;;;4.18;;
47894;SDS011;33653;52.302;8.134;2023-01-28T15:39:17;6.15;;;4.40;;
47894;SDS011;33653;52.302;8.134;2023-01-28T15:42:07;9.00;;;5.15;;
47894;SDS011;33653;52.302;8.134;2023-01-28T15:44:44;9.85;;;5.70;;
47894;SDS011;33653;52.302;8.134;2023-01-28T15:47:27;9.95;;;5.72;;
47894;SDS011;33653;52.302;8.134;2023-01-28T15:50:01;11.25;;;5.78;;
47894;SDS011;33653;52.302;8.134;2023-01-28T15:52:33;10.60;;;6.28;;
47894;SDS011;33653;52.302;8.134;2023-01-28T15:55:03;10.75;;;6.72;;
47894;SDS011;33653;52.302;8.134;2023-01-28T15:57:33;7.85;;;4.55;;
47894;SDS011;33653;52.302;8.134;2023-01-28T16:02:45;10.02;;;6.32;;
47894;SDS011;33653;52.302;8.134;2023-01-28T16:05:23;8.38;;;5.43;;
47894;SDS011;33653;52.302;8.134;2023-01-28T16:07:51;12.35;;;6.65;;
47894;SDS011;33653;52.302;8.134;2023-01-28T16:10:20;10.00;;;5.60;;
47894;SDS011;33653;52.302;8.134;2023-01-28T16:15:20;6.90;;;5.63;;
47894;SDS011;33653;52.302;8.134;2023-01-28T16:17:52;7.05;;;4.53;;
47894;SDS011;33653;52.302;8.134;2023-01-28T16:20:23;10.73;;;5.93;;
47894;SDS011;33653;52.302;8.134;2023-01-28T16:22:54;12.45;;;6.18;;
47894;SDS011;33653;52.302;8.134;2023-01-28T16:25:26;6.80;;;4.60;;
47894;SDS011;33653;52.302;8.134;2023-01-28T16:27:57;10.88;;;7.13;;
47894;SDS011;33653;52.302;8.134;2023-01-28T16:30:27;8.35;;;5.80;;
47894;SDS011;33653;52.302;8.134;2023-01-28T16:32:56;10.60;;;5.28;;
47894;SDS011;33653;52.302;8.134;2023-01-28T16:35:26;15.05;;;6.88;;
47894;SDS011;33653;52.302;8.134;2023-01-28T16:38:15;10.05;;;6.07;;
47894;SDS011;33653;52.302;8.134;2023-01-28T16:40:44;10.00;;;7.38;;
47894;SDS011;33653;52.302;8.134;2023-01-28T16:43:14;10.47;;;6.87;;
47894;SDS011;33653;52.302;8.134;2023-01-28T16:45:42;10.23;;;5.97;;
47894;SDS011;33653;52.302;8.134;2023-01-28T16:48:12;9.03;;;5.97;;
47894;SDS011;33653;52.302;8.134;2023-01-28T16:50:41;10.43;;;6.40;;
47894;SDS011;33653;52.302;8.134;2023-01-28T16:53:17;8.00;;;5.60;;
47894;SDS011;33653;52.302;8.134;2023-01-28T16:55:58;8.20;;;5.50;;
47894;SDS011;33653;52.302;8.134;2023-01-28T16:58:27;9.87;;;5.63;;
47894;SDS011;33653;52.302;8.134;2023-01-28T17:00:55;7.18;;;5.88;;
47894;SDS011;33653;52.302;8.134;2023-01-28T17:03:23;10.90;;;6.73;;
47894;SDS011;33653;52.302;8.134;2023-01-28T17:05:51;11.40;;;6.82;;
47894;SDS011;33653;52.302;8.134;2023-01-28T17:08:19;8.60;;;5.93;;
47894;SDS011;33653;52.302;8.134;2023-01-28T17:10:53;8.50;;;5.37;;
47894;SDS011;33653;52.302;8.134;2023-01-28T17:13:22;16.93;;;7.53;;
47894;SDS011;33653;52.302;8.134;2023-01-28T17:15:50;7.60;;;6.23;;
47894;SDS011;33653;52.302;8.134;2023-01-28T17:18:18;10.33;;;6.57;;
47894;SDS011;33653;52.302;8.134;2023-01-28T17:20:46;8.83;;;4.90;;
47894;SDS011;33653;52.302;8.134;2023-01-28T17:23:14;8.60;;;5.93;;
47894;SDS011;33653;52.302;8.134;2023-01-28T17:25:43;8.07;;;5.53;;
47894;SDS011;33653;52.302;8.134;2023-01-28T17:28:11;7.83;;;6.33;;
47894;SDS011;33653;52.302;8.134;2023-01-28T17:30:39;18.07;;;10.77;;
47894;SDS011;33653;52.302;8.134;2023-01-28T17:33:07;17.53;;;8.77;;
47894;SDS011;33653;52.302;8.134;2023-01-28T17:35:35;18.80;;;10.17;;
47894;SDS011;33653;52.302;8.134;2023-01-28T17:38:04;25.07;;;12.27;;